Augusta, Georgia
Current Conditions -  °F | °C
As of 12:53 AM on Thursday 23 Oct 2014 (Local Time) from KDNL Reporting Station
Clear Clear  
Wind Chill: 53°   Ceiling: Unl
Heat Index: 53°   Visibility: 10mi
Dew Point: 42°   Wind: 6mph
Humidity: 66%   Direction: 360°N
Pressure: 30.11"   Gusts: NA
Location:  33.48°N, 81.97°W
Report Text: KDNL 230453Z AUTO 36005KT 10SM CLR 12/06 A3011 RMK AO2 SLP192 T01170056 402170100
Loading
Personal Weather Stations






























Interactive Weather Map
Tropical Storm Tracking
New forecast layout! Learn more

10-Day Weather Forecast

Advertisements
Track Severe Weather on mobile